Terminal Aerodrome Forecast
Issued by NWS Sterling, VA

Home | Current Version | Previous Version | Text Only | Print | Product List | Glossary On
Versions: 1 2 3 4 5 6 7 8 9 10 11 12 13 14 15 16 17 18 19
000
FTUS41 KLWX 262300
TAFCHO
TAF
KCHO 262336Z 2700/2724 02006KT 4SM BR OVC006
     FM270600 01004KT 1SM BR OVC025
     FM271100 34006KT 5SM BR OVC025
     FM271400 34007KT P6SM OVC045
     FM272000 32009KT P6SM SCT050=

USA.gov is the U.S. government's official web portal to all federal, state and local government web resources and services.